St Solene — FVDG — position and weather

sailwx.info

Track history (hours):
 
Tides and Currents Weather Stations Pressure Air Temp Water Temp Dewpoint Dewpoint Depression Visibility Wind Speed Wind Dir Waves Ship Positions

St Solene

Last reported at 2017-Feb-23 04:14 UTC. Time now 2017-Feb-23 13:54 UTC.
Position N 43°10' E 009°25'.

Length 104 m; draft 6.5 m.

Type: Tanker. MMSI: 226302000.

Date/timePositionNaut miles runAvg speedWind from/ knotsBaromVisibWave heightAir tempDewpointWater temp
2017-Feb-23 04:14N 43°10' E 009°25'811.1
2017-Feb-23 03:33N 43°12' E 009°15'16812.6
2017-Feb-22 14:13N 42°54' E 005°27'2211.5
2017-Feb-22 12:18N 43°07' E 005°03'13 6.7
2017-Feb-22 10:18N 43°20' E 004°58'5 0.2
2017-Feb-21 05:29N 43°24' E 004°56'0 0.0
2017-Feb-21 04:22N 43°24' E 004°56'0 0.0
2017-Feb-21 03:31N 43°24' E 004°56'0 0.0
2017-Feb-20 19:22N 43°24' E 004°56'0 0.0
2017-Feb-20 14:25N 43°24' E 004°56'0 0.0
2017-Feb-20 01:31N 43°24' E 004°56'0 0.1
2017-Feb-19 23:21N 43°24' E 004°56'0 0.1
2017-Feb-19 20:24N 43°24' E 004°56'0 0.0
2017-Feb-19 08:30N 43°24' E 004°56'0 0.0
2017-Feb-19 06:30N 43°24' E 004°56'0 0.0
2017-Feb-18 23:30N 43°24' E 004°56'0 0.0
2017-Feb-18 22:30N 43°24' E 004°56'0 0.0
2017-Feb-18 07:24N 43°24' E 004°56'0 0.0
2017-Feb-18 02:33N 43°24' E 004°56'0 0.0
2017-Feb-17 16:33N 43°25' E 004°56'  
2017-Feb-14 08:14N 43°15' E 005°01'11411.8
2017-Feb-13 22:33N 43°02' E 007°36'5413.3
2017-Feb-13 18:31N 43°17' E 008°47'1313.1
2017-Feb-13 17:33N 43°21' E 009°04'1313.3
2017-Feb-13 16:33N 43°24' E 009°21'1313.3
2017-Feb-13 15:33N 43°28' E 009°39'1313.0
2017-Feb-13 14:33N 43°31' E 009°56'1312.9
2017-Feb-13 13:33N 43°32' E 010°14'5 4.8
2017-Feb-13 12:32N 43°35' E 010°19'0 0.0
2017-Feb-13 11:32N 43°35' E 010°19'0 0.0
2017-Feb-13 10:29N 43°35' E 010°19'0 0.0
2017-Feb-13 09:29N 43°35' E 010°19'0 0.0
2017-Feb-13 08:32N 43°35' E 010°19'0 0.0
2017-Feb-13 07:29N 43°35' E 010°19'0 0.0
2017-Feb-13 06:32N 43°35' E 010°19'0 0.0
2017-Feb-13 05:32N 43°35' E 010°19'0 0.0
2017-Feb-13 04:32N 43°35' E 010°19'  
Track history (hours):
 
Tides and Currents Weather Stations Pressure Air Temp Water Temp Dewpoint Dewpoint Depression Visibility Wind Speed Wind Dir Waves Ship Positions

St Solene

Last reported at 2017-Feb-23 04:14 UTC. Time now 2017-Feb-23 13:54 UTC.
Position N 43°10' E 009°25'.

Length 104 m; draft 6.5 m.

Type: Tanker. MMSI: 226302000.

Date/timePositionNaut miles runAvg speedWind from/ knotsBaromVisibWave heightAir tempDewpointWater temp
2017-Feb-23 04:14N 43°10' E 009°25'811.1
2017-Feb-23 03:33N 43°12' E 009°15'16812.6
2017-Feb-22 14:13N 42°54' E 005°27'2211.5
2017-Feb-22 12:18N 43°07' E 005°03'13 6.7
2017-Feb-22 10:18N 43°20' E 004°58'5 0.2
2017-Feb-21 05:29N 43°24' E 004°56'0 0.0
2017-Feb-21 04:22N 43°24' E 004°56'0 0.0
2017-Feb-21 03:31N 43°24' E 004°56'0 0.0
2017-Feb-20 19:22N 43°24' E 004°56'0 0.0
2017-Feb-20 14:25N 43°24' E 004°56'0 0.0
2017-Feb-20 01:31N 43°24' E 004°56'0 0.1
2017-Feb-19 23:21N 43°24' E 004°56'0 0.1
2017-Feb-19 20:24N 43°24' E 004°56'0 0.0
2017-Feb-19 08:30N 43°24' E 004°56'0 0.0
2017-Feb-19 06:30N 43°24' E 004°56'0 0.0
2017-Feb-18 23:30N 43°24' E 004°56'0 0.0
2017-Feb-18 22:30N 43°24' E 004°56'0 0.0
2017-Feb-18 07:24N 43°24' E 004°56'0 0.0
2017-Feb-18 02:33N 43°24' E 004°56'0 0.0
2017-Feb-17 16:33N 43°25' E 004°56'  
2017-Feb-14 08:14N 43°15' E 005°01'11411.8
2017-Feb-13 22:33N 43°02' E 007°36'5413.3
2017-Feb-13 18:31N 43°17' E 008°47'1313.1
2017-Feb-13 17:33N 43°21' E 009°04'1313.3
2017-Feb-13 16:33N 43°24' E 009°21'1313.3
2017-Feb-13 15:33N 43°28' E 009°39'1313.0
2017-Feb-13 14:33N 43°31' E 009°56'1312.9
2017-Feb-13 13:33N 43°32' E 010°14'5 4.8
2017-Feb-13 12:32N 43°35' E 010°19'0 0.0
2017-Feb-13 11:32N 43°35' E 010°19'0 0.0
2017-Feb-13 10:29N 43°35' E 010°19'0 0.0
2017-Feb-13 09:29N 43°35' E 010°19'0 0.0
2017-Feb-13 08:32N 43°35' E 010°19'0 0.0
2017-Feb-13 07:29N 43°35' E 010°19'0 0.0
2017-Feb-13 06:32N 43°35' E 010°19'0 0.0
2017-Feb-13 05:32N 43°35' E 010°19'0 0.0
2017-Feb-13 04:32N 43°35' E 010°19'  

Dump ship's entire track history